Time;durP1;ratioP1;P1;durP2;ratioP2;P2;SDS_P1;SDS_P2;PMS_P1;PMS_P2;Temp;Humidity;BMP_temperature;BMP_pressure;BME280_temperature;BME280_humidity;BME280_pressure;Samples;Min_cycle;Max_cycle;Signal;HPM_P1;HPM_P2
2024/02/28 00:02:09;;;;;;;32.80;17.50;;;8.60;77.40;;;;;;5045042;28;20210;-73
2024/02/28 00:04:35;;;;;;;34.07;17.60;;;8.40;77.40;;;;;;5043300;28;20481;-72
2024/02/28 00:07:00;;;;;;;35.80;18.60;;;8.30;78.10;;;;;;5042700;28;20189;-72
2024/02/28 00:09:26;;;;;;;36.10;17.83;;;8.20;78.60;;;;;;5047481;28;20215;-74
2024/02/28 00:11:52;;;;;;;33.20;17.17;;;8.20;79.00;;;;;;5041605;28;20326;-72
2024/02/28 00:14:18;;;;;;;35.03;17.93;;;8.10;79.30;;;;;;5039945;28;20236;-73
2024/02/28 00:16:44;;;;;;;38.60;18.53;;;8.20;79.50;;;;;;5042106;28;20619;-72
2024/02/28 00:19:13;;;;;;;38.07;18.70;;;8.30;79.30;;;;;;5051962;28;20492;-73
2024/02/28 00:21:40;;;;;;;31.10;17.00;;;8.40;78.90;;;;;;5037899;28;20552;-74
2024/02/28 00:24:06;;;;;;;36.53;16.63;;;8.40;78.90;;;;;;5047464;28;20427;-73
2024/02/28 00:26:32;;;;;;;36.30;18.47;;;8.40;78.70;;;;;;5047573;28;20788;-74
2024/02/28 00:28:57;;;;;;;34.57;16.30;;;8.20;78.60;;;;;;5042232;28;20463;-74
2024/02/28 00:31:23;;;;;;;33.70;16.90;;;8.10;78.10;;;;;;5041039;28;20213;-73
2024/02/28 00:33:48;;;;;;;30.77;15.17;;;8.20;77.70;;;;;;5043748;28;20189;-74
2024/02/28 00:36:15;;;;;;;30.30;16.30;;;8.20;77.10;;;;;;5037574;28;20193;-74
2024/02/28 00:38:41;;;;;;;32.50;17.40;;;8.20;76.40;;;;;;5043364;28;20564;-73
2024/02/28 00:41:06;;;;;;;40.07;17.47;;;8.20;77.00;;;;;;5037303;28;20468;-73
2024/02/28 00:43:32;;;;;;;40.60;17.93;;;8.10;78.10;;;;;;5044453;28;20426;-73
2024/02/28 00:45:58;;;;;;;38.33;18.10;;;8.10;78.40;;;;;;5042349;28;20180;-73
2024/02/28 00:48:24;;;;;;;38.97;18.20;;;8.10;78.40;;;;;;5045652;28;20266;-73
2024/02/28 00:50:50;;;;;;;36.77;18.30;;;8.00;78.30;;;;;;5039499;28;20473;-72
2024/02/28 00:53:16;;;;;;;36.00;17.37;;;8.10;78.30;;;;;;5044005;28;20422;-73
2024/02/28 00:55:42;;;;;;;32.97;17.00;;;8.20;78.00;;;;;;5043725;28;20431;-74
2024/02/28 00:58:08;;;;;;;36.47;16.80;;;8.20;77.30;;;;;;5042373;28;20430;-72
2024/02/28 01:00:33;;;;;;;34.83;16.53;;;8.10;77.00;;;;;;5040908;28;20889;-72
2024/02/28 01:02:59;;;;;;;34.83;15.67;;;8.00;77.60;;;;;;5044844;28;21021;-73
2024/02/28 01:05:24;;;;;;;37.00;17.93;;;8.00;77.80;;;;;;5048225;28;20184;-72
2024/02/28 01:07:50;;;;;;;37.87;17.23;;;8.00;77.70;;;;;;5047451;28;20208;-75
2024/02/28 01:10:15;;;;;;;34.50;16.67;;;8.10;78.00;;;;;;5044166;28;20684;-73
2024/02/28 01:12:41;;;;;;;38.10;18.00;;;8.10;77.70;;;;;;5044236;28;20209;-73
2024/02/28 01:15:07;;;;;;;34.93;17.90;;;8.10;77.60;;;;;;5047018;28;20185;-71
2024/02/28 01:17:33;;;;;;;34.83;16.77;;;8.10;77.10;;;;;;5049718;28;20223;-71
2024/02/28 01:19:58;;;;;;;43.17;19.10;;;8.20;77.30;;;;;;5048698;28;20499;-72
2024/02/28 01:22:24;;;;;;;35.60;17.43;;;8.20;76.70;;;;;;5052489;28;20315;-71
2024/02/28 01:24:49;;;;;;;35.83;16.87;;;8.20;76.80;;;;;;5051591;28;20558;-71
2024/02/28 01:27:15;;;;;;;38.30;19.23;;;8.20;76.80;;;;;;5049387;28;20273;-71
2024/02/28 01:29:40;;;;;;;44.90;19.43;;;8.20;76.80;;;;;;5049019;28;20184;-73
2024/02/28 01:32:06;;;;;;;43.43;19.60;;;8.10;77.10;;;;;;5045448;28;20225;-72
2024/02/28 01:34:32;;;;;;;39.87;18.80;;;8.00;77.70;;;;;;5041915;28;20924;-72
2024/02/28 01:36:57;;;;;;;35.97;18.33;;;8.10;77.80;;;;;;5041170;28;20427;-72
2024/02/28 01:39:23;;;;;;;41.73;19.70;;;8.10;77.70;;;;;;5042380;28;20182;-71
2024/02/28 01:41:55;;;;;;;35.30;18.00;;;8.10;77.70;;;;;;5041614;28;20231;-73
2024/02/28 01:44:21;;;;;;;36.37;18.67;;;8.10;77.80;;;;;;5045281;28;20173;-74
2024/02/28 01:46:47;;;;;;;38.60;18.87;;;8.10;77.70;;;;;;5046874;28;20519;-73
2024/02/28 01:49:14;;;;;;;43.93;20.97;;;8.10;77.60;;;;;;5044569;28;20492;-72
2024/02/28 01:51:41;;;;;;;44.57;20.80;;;8.00;77.80;;;;;;5041161;28;20211;-73
2024/02/28 01:54:07;;;;;;;35.80;18.43;;;8.00;78.10;;;;;;5043581;28;20752;-73
2024/02/28 01:56:34;;;;;;;41.73;19.40;;;7.90;78.30;;;;;;5044843;28;20411;-71
2024/02/28 01:59:01;;;;;;;41.00;20.73;;;7.70;78.70;;;;;;5050151;28;20430;-72
2024/02/28 02:01:27;;;;;;;45.83;18.60;;;7.80;79.00;;;;;;5042868;28;20454;-73
2024/02/28 02:03:54;;;;;;;40.13;17.57;;;7.70;79.30;;;;;;5041468;28;20426;-74
2024/02/28 02:06:20;;;;;;;42.73;20.53;;;7.80;79.50;;;;;;5046252;28;20404;-72
2024/02/28 02:08:46;;;;;;;42.83;19.70;;;7.80;79.30;;;;;;5052885;28;20470;-73
2024/02/28 02:11:14;;;;;;;41.00;20.10;;;7.70;79.50;;;;;;5048502;28;20896;-72
2024/02/28 02:13:53;;;;;;;42.87;19.67;;;7.70;79.70;;;;;;5037955;28;20507;-73
2024/02/28 02:16:19;;;;;;;43.13;19.53;;;7.80;79.50;;;;;;5049791;28;20415;-73
2024/02/28 02:18:47;;;;;;;39.10;19.27;;;7.70;79.60;;;;;;5048894;28;20462;-72
2024/02/28 02:21:17;;;;;;;40.83;19.70;;;7.80;79.60;;;;;;5043436;28;20542;-73
2024/02/28 02:23:43;;;;;;;41.97;19.60;;;7.90;79.20;;;;;;5044491;28;20485;-73
2024/02/28 02:26:09;;;;;;;43.90;19.63;;;7.80;79.00;;;;;;5039974;28;20428;-71
2024/02/28 02:28:34;;;;;;;40.80;19.57;;;7.70;79.30;;;;;;5037534;28;20220;-71
2024/02/28 02:31:00;;;;;;;44.37;19.73;;;7.80;79.60;;;;;;5044733;28;20577;-72
2024/02/28 02:33:25;;;;;;;45.87;19.53;;;7.80;79.70;;;;;;5040207;28;20264;-72
2024/02/28 02:35:54;;;;;;;43.43;19.40;;;7.70;80.30;;;;;;5038635;28;20303;-71
2024/02/28 02:38:20;;;;;;;40.40;20.03;;;7.80;80.50;;;;;;5045087;28;20183;-72
2024/02/28 02:40:50;;;;;;;36.70;18.23;;;7.80;80.30;;;;;;5041022;28;20462;-72
2024/02/28 02:43:15;;;;;;;40.40;19.43;;;7.70;80.30;;;;;;5047727;28;20187;-72
2024/02/28 02:45:41;;;;;;;38.50;19.30;;;7.60;80.60;;;;;;5041708;28;21066;-72
2024/02/28 02:48:06;;;;;;;38.73;16.47;;;7.50;80.90;;;;;;5061974;22;20266;-74
2024/02/28 02:50:32;;;;;;;35.37;19.23;;;7.60;81.10;;;;;;5047816;28;20739;-72
2024/02/28 02:52:58;;;;;;;42.23;18.93;;;7.60;80.90;;;;;;5065630;28;20190;-73
2024/02/28 02:55:23;;;;;;;42.93;18.73;;;7.60;81.10;;;;;;5068690;28;20185;-71
2024/02/28 02:57:49;;;;;;;38.67;19.47;;;7.60;80.90;;;;;;5050397;28;20222;-73
2024/02/28 03:00:15;;;;;;;34.90;17.20;;;7.60;80.90;;;;;;5061298;28;20288;-72
2024/02/28 03:02:40;;;;;;;38.13;19.27;;;7.70;81.10;;;;;;5061143;28;20229;-74
2024/02/28 03:05:07;;;;;;;35.77;17.67;;;7.60;80.80;;;;;;5063923;28;20203;-73
2024/02/28 03:07:32;;;;;;;32.83;16.50;;;7.60;81.10;;;;;;5067079;28;20187;-70
2024/02/28 03:09:58;;;;;;;36.90;18.50;;;7.70;80.90;;;;;;5061649;28;20414;-72
2024/02/28 03:12:25;;;;;;;37.27;17.57;;;7.70;80.80;;;;;;5058614;28;20258;-71
2024/02/28 03:14:50;;;;;;;44.50;19.10;;;7.80;80.80;;;;;;5064057;28;20823;-72
2024/02/28 03:17:16;;;;;;;37.23;17.47;;;7.70;80.80;;;;;;5065411;28;20224;-72
2024/02/28 03:19:42;;;;;;;35.10;18.23;;;7.60;80.60;;;;;;5064058;28;20187;-73
2024/02/28 03:22:07;;;;;;;44.03;19.53;;;7.70;80.90;;;;;;5061325;28;20334;-72
2024/02/28 03:24:35;;;;;;;48.53;21.13;;;7.60;80.80;;;;;;5061984;28;20984;-71
2024/02/28 03:27:01;;;;;;;42.17;18.70;;;7.50;80.90;;;;;;5061002;28;20184;-72
2024/02/28 03:29:27;;;;;;;37.57;18.43;;;7.50;81.10;;;;;;5062783;28;20682;-71
2024/02/28 03:31:53;;;;;;;37.47;18.60;;;7.30;80.90;;;;;;5060973;28;20561;-73
2024/02/28 03:34:18;;;;;;;43.13;19.00;;;7.20;81.70;;;;;;5066300;28;20184;-74
2024/02/28 03:36:44;;;;;;;43.77;20.40;;;7.20;81.50;;;;;;5066356;28;20183;-73
2024/02/28 03:39:10;;;;;;;44.20;19.13;;;7.20;81.80;;;;;;5067441;28;20915;-74
2024/02/28 03:41:35;;;;;;;39.93;17.87;;;7.30;81.70;;;;;;5065110;28;20211;-71
2024/02/28 03:44:01;;;;;;;42.77;19.87;;;7.40;81.40;;;;;;5065746;28;20188;-73
2024/02/28 03:46:27;;;;;;;41.43;19.60;;;7.60;81.10;;;;;;5059220;28;20180;-74
2024/02/28 03:48:52;;;;;;;45.50;20.20;;;7.50;80.60;;;;;;5069421;28;21000;-73
2024/02/28 03:51:18;;;;;;;43.60;17.57;;;7.40;80.60;;;;;;5062619;28;20196;-71
2024/02/28 03:53:43;;;;;;;45.37;18.60;;;7.40;80.90;;;;;;5067277;28;20222;-72
2024/02/28 03:56:09;;;;;;;46.13;21.07;;;7.30;80.90;;;;;;5063980;28;20828;-71
2024/02/28 03:58:35;;;;;;;41.77;19.63;;;7.20;81.20;;;;;;5071303;28;20207;-72
2024/02/28 04:01:01;;;;;;;46.90;20.50;;;7.20;81.50;;;;;;5063247;28;20224;-73
2024/02/28 04:03:26;;;;;;;40.70;19.00;;;7.10;81.90;;;;;;5073517;28;20938;-72
2024/02/28 04:05:52;;;;;;;40.17;19.27;;;7.10;82.10;;;;;;5065956;28;20188;-72
2024/02/28 04:08:18;;;;;;;36.80;17.53;;;7.00;81.90;;;;;;5071118;28;20248;-72
2024/02/28 04:10:43;;;;;;;40.33;18.67;;;7.00;82.10;;;;;;5059858;28;20746;-74
2024/02/28 04:13:09;;;;;;;40.50;17.30;;;7.10;82.10;;;;;;5051732;28;20238;-71
2024/02/28 04:15:35;;;;;;;42.73;19.93;;;7.20;82.10;;;;;;5064824;28;20671;-73
2024/02/28 04:18:01;;;;;;;47.37;19.73;;;7.20;81.90;;;;;;5069616;28;20553;-72
2024/02/28 04:20:26;;;;;;;36.50;17.73;;;7.10;81.70;;;;;;5062303;28;20444;-73
2024/02/28 04:22:52;;;;;;;41.10;18.80;;;7.10;81.80;;;;;;5064804;28;20762;-72
2024/02/28 04:25:18;;;;;;;42.60;18.87;;;7.10;81.80;;;;;;5064206;28;20206;-72
2024/02/28 04:27:44;;;;;;;44.70;20.57;;;7.10;82.10;;;;;;5067836;28;20212;-73
2024/02/28 04:30:09;;;;;;;41.17;18.93;;;7.20;81.90;;;;;;5070921;28;20183;-71
2024/02/28 04:32:36;;;;;;;38.70;19.20;;;7.00;81.90;;;;;;5051969;28;20565;-71
2024/02/28 04:35:02;;;;;;;47.10;18.97;;;7.00;82.20;;;;;;5068920;28;20275;-72
2024/02/28 04:37:28;;;;;;;40.50;18.67;;;7.10;82.40;;;;;;5069424;28;20441;-73
2024/02/28 04:39:54;;;;;;;38.20;18.50;;;7.10;82.10;;;;;;5071436;28;20923;-71
2024/02/28 04:42:20;;;;;;;40.80;18.53;;;7.10;82.10;;;;;;5064900;28;20253;-73
2024/02/28 04:44:45;;;;;;;39.63;18.50;;;7.10;81.90;;;;;;5062449;28;20930;-72
2024/02/28 04:47:11;;;;;;;41.00;17.43;;;7.10;82.10;;;;;;5067410;28;20671;-73
2024/02/28 04:49:38;;;;;;;38.90;19.03;;;7.10;81.80;;;;;;5065395;28;20664;-72
2024/02/28 04:52:05;;;;;;;38.53;18.90;;;6.90;81.80;;;;;;5064364;28;20211;-72
2024/02/28 04:54:30;;;;;;;34.37;18.27;;;6.90;82.10;;;;;;5066777;28;20438;-71
2024/02/28 04:56:56;;;;;;;31.90;16.40;;;7.00;82.40;;;;;;5061462;28;20946;-72
2024/02/28 04:59:22;;;;;;;40.50;18.20;;;7.10;82.10;;;;;;5067777;28;20242;-72
2024/02/28 05:01:48;;;;;;;38.03;17.30;;;7.00;81.90;;;;;;5060208;28;20498;-74
2024/02/28 05:04:14;;;;;;;42.17;18.23;;;7.10;82.10;;;;;;5071026;28;20180;-73
2024/02/28 05:06:39;;;;;;;38.50;17.20;;;7.00;81.80;;;;;;5061748;28;20212;-72
2024/02/28 05:09:05;;;;;;;42.43;18.33;;;7.00;81.90;;;;;;5067648;28;20886;-73
2024/02/28 05:11:30;;;;;;;42.50;19.10;;;7.00;81.80;;;;;;5064348;28;20207;-72
2024/02/28 05:13:56;;;;;;;43.10;19.07;;;6.90;81.90;;;;;;5063351;28;20184;-72
2024/02/28 05:16:22;;;;;;;36.97;18.37;;;6.70;82.40;;;;;;5060102;28;20691;-73
2024/02/28 05:18:47;;;;;;;43.57;19.83;;;6.70;82.70;;;;;;5063570;28;20272;-73
2024/02/28 05:21:14;;;;;;;44.03;19.83;;;6.70;82.80;;;;;;5057802;28;20585;-72
2024/02/28 05:23:42;;;;;;;37.50;17.67;;;6.60;83.00;;;;;;5065481;28;20540;-73
2024/02/28 05:26:08;;;;;;;38.97;19.00;;;6.70;83.30;;;;;;5064177;28;20426;-73
2024/02/28 05:28:38;;;;;;;44.67;19.13;;;6.80;83.10;;;;;;5066463;28;20592;-72
2024/02/28 05:31:25;;;;;;;42.90;19.50;;;6.80;83.10;;;;;;5060914;28;20215;-73
2024/02/28 05:33:52;;;;;;;49.80;19.13;;;6.90;82.80;;;;;;5068083;28;20950;-73
2024/02/28 05:36:18;;;;;;;37.70;17.27;;;6.80;82.50;;;;;;5048605;28;20414;-75
2024/02/28 05:38:44;;;;;;;42.10;18.43;;;6.70;82.70;;;;;;5068364;28;20426;-73
2024/02/28 05:41:09;;;;;;;37.23;17.97;;;6.70;82.80;;;;;;5062620;28;20465;-73
2024/02/28 05:43:37;;;;;;;38.53;18.73;;;6.70;82.80;;;;;;5065786;28;20212;-74
2024/02/28 05:46:03;;;;;;;39.30;18.80;;;6.70;83.00;;;;;;5068555;28;20181;-73
2024/02/28 05:48:29;;;;;;;44.43;20.20;;;6.70;83.00;;;;;;5068087;28;20473;-72
2024/02/28 05:50:54;;;;;;;41.47;18.93;;;6.50;83.00;;;;;;5069522;28;20657;-71
2024/02/28 05:53:20;;;;;;;40.60;19.00;;;6.60;83.30;;;;;;5044615;28;20181;-72
2024/02/28 05:55:46;;;;;;;43.37;19.70;;;6.60;83.30;;;;;;5064754;28;20187;-72
2024/02/28 05:58:13;;;;;;;37.00;18.60;;;6.60;83.10;;;;;;5057168;28;20418;-74
2024/02/28 06:00:39;;;;;;;37.37;18.13;;;6.50;83.30;;;;;;5041445;28;20199;-72
2024/02/28 06:03:05;;;;;;;40.83;18.77;;;6.50;83.10;;;;;;5064949;28;20414;-71
2024/02/28 06:05:30;;;;;;;38.43;18.63;;;6.50;83.30;;;;;;5065198;28;20179;-73
2024/02/28 06:07:56;;;;;;;42.47;19.97;;;6.50;83.30;;;;;;5056565;28;20470;-71
2024/02/28 06:10:22;;;;;;;41.87;19.20;;;6.50;83.30;;;;;;5058462;28;20263;-74
2024/02/28 06:12:47;;;;;;;41.47;19.97;;;6.60;83.30;;;;;;5057136;28;20561;-74
2024/02/28 06:15:13;;;;;;;42.47;20.20;;;6.60;83.10;;;;;;5062354;28;20196;-71
2024/02/28 06:17:39;;;;;;;33.93;17.83;;;6.60;83.10;;;;;;5045964;28;20664;-71
2024/02/28 06:20:06;;;;;;;44.07;20.80;;;6.50;83.10;;;;;;5061315;28;20668;-73
2024/02/28 06:22:31;;;;;;;48.60;21.37;;;6.60;83.30;;;;;;5060491;28;20208;-71
2024/02/28 06:24:57;;;;;;;40.77;19.37;;;6.40;83.10;;;;;;5062750;28;20854;-73
2024/02/28 06:27:23;;;;;;;39.60;19.07;;;6.40;83.40;;;;;;5072807;28;20196;-74
2024/02/28 06:29:49;;;;;;;50.47;21.57;;;6.40;83.30;;;;;;5067406;28;20192;-75
2024/02/28 06:32:14;;;;;;;43.93;21.40;;;6.40;83.60;;;;;;5069474;28;20204;-72
2024/02/28 06:34:40;;;;;;;41.30;19.27;;;6.30;83.80;;;;;;5061989;28;20441;-74
2024/02/28 06:37:05;;;;;;;44.20;20.07;;;6.30;84.00;;;;;;5062098;28;20230;-73
2024/02/28 06:39:31;;;;;;;45.43;19.73;;;6.20;84.00;;;;;;5061726;28;20693;-73
2024/02/28 06:41:57;;;;;;;41.77;19.10;;;6.40;84.10;;;;;;5062012;28;20265;-76
2024/02/28 06:44:22;;;;;;;41.20;19.23;;;6.50;83.80;;;;;;5061212;28;20241;-74
2024/02/28 06:46:48;;;;;;;45.57;21.00;;;6.50;83.60;;;;;;5065228;28;20198;-75
2024/02/28 06:49:13;;;;;;;46.90;20.00;;;6.60;83.60;;;;;;5060534;28;20307;-72
2024/02/28 06:51:39;;;;;;;37.17;20.40;;;6.60;83.30;;;;;;5059754;28;20250;-74
2024/02/28 06:54:04;;;;;;;41.10;20.53;;;6.70;83.30;;;;;;5056104;28;20192;-74
2024/02/28 06:56:31;;;;;;;49.63;20.60;;;6.70;83.00;;;;;;5063537;28;20271;-73
2024/02/28 06:58:56;;;;;;;41.53;18.90;;;6.70;82.70;;;;;;5055558;28;20184;-74
2024/02/28 07:01:22;;;;;;;40.03;19.23;;;6.80;82.50;;;;;;5057716;28;20462;-74
2024/02/28 07:03:48;;;;;;;37.67;19.50;;;6.90;82.40;;;;;;5056415;28;20192;-76
2024/02/28 07:06:13;;;;;;;41.43;20.47;;;7.00;82.20;;;;;;5064153;28;20180;-74
2024/02/28 07:08:39;;;;;;;43.40;21.13;;;7.10;81.90;;;;;;5063024;28;20303;-73
2024/02/28 07:11:04;;;;;;;35.60;17.77;;;7.20;81.70;;;;;;5064392;28;20218;-75
2024/02/28 07:13:30;;;;;;;40.83;18.73;;;7.20;81.40;;;;;;5060548;28;20188;-73
2024/02/28 07:15:57;;;;;;;45.07;17.63;;;7.40;80.80;;;;;;5067065;28;20180;-74
2024/02/28 07:18:25;;;;;;;40.53;20.30;;;7.40;80.30;;;;;;5061698;28;20176;-74
2024/02/28 07:20:51;;;;;;;36.17;18.03;;;7.50;80.30;;;;;;5067774;28;20450;-73
2024/02/28 07:23:17;;;;;;;38.07;19.33;;;7.40;80.00;;;;;;5068954;28;20431;-72
2024/02/28 07:25:43;;;;;;;39.13;20.20;;;7.40;79.90;;;;;;5065457;28;20767;-72
2024/02/28 07:28:09;;;;;;;42.43;20.43;;;7.20;80.00;;;;;;5057033;28;20308;-73
2024/02/28 07:30:35;;;;;;;43.53;20.90;;;6.90;80.80;;;;;;5059716;28;20704;-74
2024/02/28 07:33:01;;;;;;;47.47;20.50;;;6.80;81.10;;;;;;5062839;28;20192;-71
2024/02/28 07:35:26;;;;;;;37.87;18.70;;;6.70;81.50;;;;;;5062585;28;20483;-73
2024/02/28 07:37:52;;;;;;;41.70;18.80;;;6.90;81.80;;;;;;5041931;28;20199;-71
2024/02/28 07:40:18;;;;;;;45.20;20.60;;;7.00;81.50;;;;;;5060972;28;20184;-73
2024/02/28 07:42:44;;;;;;;40.80;19.67;;;7.00;81.40;;;;;;5059691;28;20192;-72
2024/02/28 07:45:09;;;;;;;42.80;21.40;;;7.00;81.40;;;;;;5059378;28;20463;-72
2024/02/28 07:47:35;;;;;;;44.03;19.83;;;7.10;81.40;;;;;;5062772;28;20235;-75
2024/02/28 07:50:01;;;;;;;48.50;20.83;;;7.10;81.20;;;;;;5057663;28;20575;-72
2024/02/28 07:52:26;;;;;;;48.40;19.97;;;7.10;81.20;;;;;;5059114;28;20204;-71
2024/02/28 07:54:52;;;;;;;53.17;22.63;;;7.10;80.90;;;;;;5058073;28;20683;-71
2024/02/28 07:57:18;;;;;;;49.33;20.30;;;6.80;81.10;;;;;;5059020;28;20188;-72
2024/02/28 07:59:44;;;;;;;45.27;21.37;;;6.80;81.90;;;;;;5062406;28;20648;-72
2024/02/28 08:02:12;;;;;;;38.37;20.67;;;6.90;81.80;;;;;;5063338;28;20459;-73
2024/02/28 08:04:38;;;;;;;44.17;20.43;;;6.90;81.80;;;;;;5061220;28;20429;-71
2024/02/28 08:07:04;;;;;;;41.73;20.87;;;6.90;81.70;;;;;;5063964;28;20419;-73
2024/02/28 08:09:30;;;;;;;50.73;21.40;;;6.90;81.50;;;;;;5061102;28;20513;-71
2024/02/28 08:11:57;;;;;;;49.17;21.80;;;6.80;81.70;;;;;;5060200;28;20498;-72
2024/02/28 08:14:23;;;;;;;44.90;21.50;;;6.70;81.90;;;;;;5053783;28;20900;-73
2024/02/28 08:16:49;;;;;;;49.27;21.87;;;6.70;82.20;;;;;;5066209;28;20414;-73
2024/02/28 08:19:14;;;;;;;48.83;21.90;;;6.70;82.40;;;;;;5062613;28;20188;-73
2024/02/28 08:21:40;;;;;;;49.20;22.67;;;6.70;82.40;;;;;;5057630;28;20208;-74
2024/02/28 08:24:06;;;;;;;43.20;22.07;;;6.70;82.50;;;;;;5054150;28;20196;-73
2024/02/28 08:26:32;;;;;;;50.13;22.43;;;6.60;82.40;;;;;;5060636;28;20568;-72
2024/02/28 08:28:57;;;;;;;52.13;22.57;;;6.50;82.80;;;;;;5053206;28;20239;-72
2024/02/28 08:31:23;;;;;;;48.73;23.77;;;6.50;83.10;;;;;;5055974;28;20549;-73
2024/02/28 08:33:48;;;;;;;52.90;23.20;;;6.50;83.30;;;;;;5058230;28;20196;-74
2024/02/28 08:36:15;;;;;;;49.43;22.77;;;6.40;83.60;;;;;;5062869;28;20237;-72
2024/02/28 08:38:40;;;;;;;59.13;23.27;;;6.60;83.70;;;;;;5061345;28;20660;-72
2024/02/28 08:41:07;;;;;;;49.80;22.77;;;6.70;83.60;;;;;;5059934;28;20584;-73
2024/02/28 08:43:37;;;;;;;48.50;22.13;;;6.60;83.00;;;;;;5060321;28;20185;-73
2024/02/28 08:46:03;;;;;;;44.90;23.30;;;6.80;83.30;;;;;;5062663;28;20415;-72
2024/02/28 08:48:29;;;;;;;43.75;22.10;;;6.90;82.80;;;;;;5082400;22;21055;-77
2024/02/28 08:50:54;;;;;;;50.70;22.97;;;6.80;82.50;;;;;;5036929;28;20508;-75
2024/02/28 08:53:20;;;;;;;50.90;23.50;;;6.90;82.50;;;;;;5032872;28;20181;-74
2024/02/28 08:55:46;;;;;;;48.10;24.20;;;6.80;82.20;;;;;;5035887;28;20220;-76
2024/02/28 08:58:12;;;;;;;44.37;20.93;;;6.50;82.70;;;;;;5034419;28;20231;-74
2024/02/28 09:00:37;;;;;;;52.03;24.03;;;6.60;83.30;;;;;;5028955;28;20475;-75
2024/02/28 09:03:04;;;;;;;45.50;20.90;;;6.80;83.10;;;;;;5025171;28;20189;-77
2024/02/28 09:05:30;;;;;;;43.43;19.13;;;6.90;82.80;;;;;;5031194;28;20184;-75
2024/02/28 09:07:57;;;;;;;35.87;18.37;;;7.00;82.50;;;;;;5033373;28;20455;-75
2024/02/28 09:10:24;;;;;;;44.00;18.33;;;7.20;82.20;;;;;;5032351;28;20212;-77
2024/02/28 09:12:50;;;;;;;50.37;19.90;;;7.30;81.50;;;;;;5026468;28;20408;-76
2024/02/28 09:15:19;;;;;;;46.63;20.23;;;7.50;80.90;;;;;;5034549;28;20514;-75
2024/02/28 09:17:46;;;;;;;40.77;20.60;;;7.50;80.20;;;;;;5034404;28;20510;-75
2024/02/28 09:20:12;;;;;;;40.10;18.57;;;7.30;79.50;;;;;;5036185;28;20466;-76
2024/02/28 09:22:38;;;;;;;43.67;20.17;;;7.40;79.70;;;;;;5028245;28;20444;-76
2024/02/28 09:25:04;;;;;;;36.47;17.13;;;7.40;79.60;;;;;;5039854;28;20431;-76
2024/02/28 09:27:30;;;;;;;39.87;18.10;;;7.40;79.50;;;;;;5040681;28;20940;-76
2024/02/28 09:29:56;;;;;;;39.80;17.77;;;7.50;79.60;;;;;;5041614;28;20432;-75
2024/02/28 09:32:22;;;;;;;43.57;19.37;;;7.70;79.20;;;;;;5032356;28;20478;-74
2024/02/28 09:34:47;;;;;;;34.57;18.00;;;7.80;78.60;;;;;;5049774;28;20701;-75
2024/02/28 09:37:14;;;;;;;44.53;20.30;;;7.80;78.30;;;;;;5043423;28;20193;-75
2024/02/28 09:39:40;;;;;;;47.40;20.23;;;7.50;78.70;;;;;;5028417;28;20197;-77
2024/02/28 09:42:08;;;;;;;40.57;18.50;;;7.20;79.20;;;;;;5024122;28;20459;-74
2024/02/28 09:44:36;;;;;;;36.47;17.07;;;7.10;80.30;;;;;;5032776;28;20432;-73
2024/02/28 09:47:02;;;;;;;38.40;17.83;;;7.30;80.30;;;;;;5032653;28;20432;-76
2024/02/28 09:49:30;;;;;;;45.10;18.67;;;7.60;79.90;;;;;;5037923;28;20474;-74
2024/02/28 09:51:58;;;;;;;40.70;19.17;;;7.80;79.20;;;;;;5023556;28;21081;-75
2024/02/28 09:54:24;;;;;;;38.73;20.87;;;7.90;78.40;;;;;;5026649;28;20458;-74
2024/02/28 09:56:51;;;;;;;40.90;18.53;;;7.80;77.80;;;;;;5032842;28;20451;-75
2024/02/28 09:59:18;;;;;;;40.47;19.10;;;7.60;78.10;;;;;;5031866;28;20428;-75
2024/02/28 10:01:47;;;;;;;38.20;18.83;;;7.70;78.30;;;;;;5008782;28;20460;-75
2024/02/28 10:04:13;;;;;;;37.70;18.27;;;7.80;77.80;;;;;;5013655;28;20473;-76
2024/02/28 10:06:42;;;;;;;34.23;16.57;;;7.80;77.40;;;;;;5030365;28;20974;-75
2024/02/28 10:09:10;;;;;;;34.73;17.53;;;7.90;77.40;;;;;;5034864;28;20472;-74
2024/02/28 10:11:36;;;;;;;28.77;14.97;;;8.00;76.40;;;;;;5035214;28;20470;-75
2024/02/28 10:14:02;;;;;;;25.40;13.37;;;8.10;75.50;;;;;;5033146;28;20427;-74
2024/02/28 10:16:28;;;;;;;28.50;13.47;;;8.30;74.60;;;;;;5045863;28;20361;-73
2024/02/28 10:18:53;;;;;;;31.57;15.80;;;8.30;74.20;;;;;;5030896;28;20462;-76
2024/02/28 10:21:19;;;;;;;30.90;14.53;;;8.20;74.20;;;;;;5030527;28;20201;-75
2024/02/28 10:23:45;;;;;;;33.57;16.13;;;8.30;74.50;;;;;;5024213;28;20223;-76
2024/02/28 10:26:14;;;;;;;32.37;16.37;;;8.50;73.70;;;;;;5037575;28;20184;-74
2024/02/28 10:28:40;;;;;;;31.57;16.13;;;8.10;73.50;;;;;;5016230;28;20455;-75
2024/02/28 10:31:10;;;;;;;38.00;14.87;;;8.00;74.00;;;;;;5028002;28;20503;-75
2024/02/28 10:33:36;;;;;;;32.57;15.07;;;7.90;74.50;;;;;;5027223;28;20489;-74
2024/02/28 10:36:04;;;;;;;39.07;17.30;;;7.90;74.90;;;;;;5028218;28;20923;-75
2024/02/28 10:38:33;;;;;;;36.27;15.83;;;7.70;75.40;;;;;;5031933;28;20263;-75
2024/02/28 10:41:02;;;;;;;33.53;15.00;;;7.60;76.10;;;;;;5029221;28;20464;-77
2024/02/28 10:43:34;;;;;;;38.47;17.00;;;7.80;76.10;;;;;;5026710;28;20508;-76
2024/02/28 10:46:00;;;;;;;29.33;14.90;;;7.90;75.50;;;;;;5032466;28;21285;-74
2024/02/28 10:48:26;;;;;;;33.63;15.23;;;7.60;75.50;;;;;;5034017;28;20475;-75
2024/02/28 10:50:56;;;;;;;32.67;15.17;;;7.80;75.90;;;;;;5034875;28;20495;-76
2024/02/28 10:53:29;;;;;;;31.77;15.50;;;8.00;75.10;;;;;;5037195;28;20459;-75
2024/02/28 10:55:59;;;;;;;28.03;14.00;;;8.10;74.50;;;;;;5041413;28;20431;-77
2024/02/28 10:58:33;;;;;;;33.23;16.70;;;8.20;74.20;;;;;;5033881;28;20439;-74
2024/02/28 11:00:59;;;;;;;35.43;17.07;;;8.30;73.60;;;;;;5032246;28;20558;-77
2024/02/28 11:03:25;;;;;;;35.77;16.60;;;8.20;73.70;;;;;;5031676;28;20461;-76
2024/02/28 11:05:51;;;;;;;32.23;15.90;;;8.00;73.90;;;;;;5033213;28;20936;-76
2024/02/28 11:08:25;;;;;;;32.67;15.33;;;8.00;74.60;;;;;;5046200;28;20457;-74
2024/02/28 11:10:57;;;;;;;32.70;15.93;;;8.20;74.20;;;;;;5029998;28;20936;-75
2024/02/28 11:13:27;;;;;;;35.67;17.83;;;8.30;73.70;;;;;;5026869;28;20409;-76
2024/02/28 11:15:57;;;;;;;37.63;19.03;;;8.00;73.90;;;;;;5031931;28;20440;-77
2024/02/28 11:18:22;;;;;;;31.97;15.90;;;7.80;74.90;;;;;;5037356;28;20803;-76
2024/02/28 11:20:48;;;;;;;32.50;14.97;;;7.80;75.50;;;;;;5028761;28;20548;-76
2024/02/28 11:23:16;;;;;;;31.07;15.60;;;8.10;75.40;;;;;;5029117;28;20185;-76
2024/02/28 11:25:42;;;;;;;34.60;16.00;;;8.20;74.50;;;;;;5027913;28;20845;-76
2024/02/28 11:28:08;;;;;;;32.67;15.40;;;8.20;74.30;;;;;;5031869;28;20535;-76
2024/02/28 11:30:34;;;;;;;34.03;16.30;;;8.30;73.50;;;;;;5028404;28;20694;-76
2024/02/28 11:33:00;;;;;;;34.60;14.43;;;8.40;73.60;;;;;;5023573;28;20486;-75
2024/02/28 11:35:28;;;;;;;27.07;14.60;;;8.60;73.20;;;;;;5030274;28;20243;-74
2024/02/28 11:37:57;;;;;;;31.13;16.07;;;8.60;72.40;;;;;;5031917;28;20185;-73
2024/02/28 11:40:26;;;;;;;39.83;18.13;;;8.60;72.30;;;;;;5029824;28;20432;-76
2024/02/28 11:42:57;;;;;;;32.80;16.70;;;8.30;72.90;;;;;;5023562;28;20462;-76
2024/02/28 11:45:23;;;;;;;40.10;18.33;;;8.20;73.70;;;;;;5031915;28;20423;-75
2024/02/28 11:47:49;;;;;;;36.53;16.70;;;8.10;74.20;;;;;;5023400;28;20932;-75
2024/02/28 11:50:14;;;;;;;34.70;16.97;;;8.30;74.30;;;;;;5033866;28;20346;-77
2024/02/28 11:52:40;;;;;;;41.00;18.30;;;8.10;74.60;;;;;;5030729;28;20217;-77
2024/02/28 11:55:06;;;;;;;38.13;17.70;;;8.20;75.10;;;;;;5029693;28;20185;-75
2024/02/28 11:57:33;;;;;;;46.10;18.33;;;8.20;75.20;;;;;;5034828;28;20924;-74
2024/02/28 12:00:12;;;;;;;36.67;17.50;;;8.20;75.50;;;;;;5035338;28;20960;-74
2024/02/28 12:02:38;;;;;;;33.23;16.33;;;8.30;75.20;;;;;;5031333;28;20880;-73
2024/02/28 12:05:04;;;;;;;39.77;17.70;;;8.40;74.90;;;;;;5031638;28;20455;-75
2024/02/28 12:07:30;;;;;;;33.33;16.60;;;8.50;74.50;;;;;;5035844;28;20186;-75
2024/02/28 12:09:56;;;;;;;41.40;18.00;;;8.30;74.50;;;;;;5027081;28;20531;-75
2024/02/28 12:12:24;;;;;;;41.20;17.80;;;8.10;74.80;;;;;;5029596;28;20208;-76
2024/02/28 12:14:50;;;;;;;38.87;17.90;;;8.10;75.20;;;;;;5033517;28;20863;-75
2024/02/28 12:17:16;;;;;;;42.07;18.73;;;8.20;75.10;;;;;;5034141;28;20456;-76
2024/02/28 12:19:42;;;;;;;36.23;17.50;;;8.10;75.10;;;;;;5034104;28;20181;-75
2024/02/28 12:22:08;;;;;;;44.60;18.30;;;8.20;75.40;;;;;;5037171;28;20737;-75
2024/02/28 12:24:34;;;;;;;38.43;17.13;;;7.90;75.10;;;;;;5034282;28;20472;-74
2024/02/28 12:26:59;;;;;;;36.57;18.27;;;7.80;75.50;;;;;;5038474;28;20505;-75
2024/02/28 12:29:25;;;;;;;45.07;19.30;;;8.00;75.90;;;;;;5033082;28;20201;-76
2024/02/28 12:31:51;;;;;;;41.40;18.83;;;7.70;75.90;;;;;;5030624;28;20737;-75